createdAt,value
2023-11-01T00:01:34.103Z,10.15
2023-11-01T00:04:06.735Z,10.14
2023-11-01T00:06:38.559Z,10.11
2023-11-01T00:09:10.486Z,10.09
2023-11-01T00:11:42.396Z,10.04
2023-11-01T00:14:14.280Z,10.04
2023-11-01T00:16:46.106Z,10.03
2023-11-01T00:19:18.310Z,10.03
2023-11-01T00:21:50.129Z,10.01
2023-11-01T00:24:22.777Z,10.00
2023-11-01T00:26:54.838Z,9.99
2023-11-01T00:29:27.122Z,10.00
2023-11-01T00:31:59.048Z,10.01
2023-11-01T00:34:31.197Z,10.00
2023-11-01T00:37:03.129Z,10.00
2023-11-01T00:39:35.307Z,9.99
2023-11-01T00:42:07.478Z,9.99
2023-11-01T00:44:39.739Z,9.98
2023-11-01T00:47:11.823Z,9.94
2023-11-01T00:49:44.163Z,9.93
2023-11-01T00:52:16.879Z,9.93
2023-11-01T00:54:48.755Z,9.92
2023-11-01T00:57:21.070Z,9.91
2023-11-01T00:59:53.429Z,9.86
2023-11-01T01:02:25.418Z,9.85
2023-11-01T01:04:57.279Z,9.85
2023-11-01T01:07:29.093Z,9.87
2023-11-01T01:10:01.445Z,9.87
2023-11-01T01:12:33.477Z,9.87
2023-11-01T01:15:06.538Z,9.89
2023-11-01T01:17:38.554Z,9.88
2023-11-01T01:20:13.142Z,9.88
2023-11-01T01:22:45.721Z,9.88
2023-11-01T01:25:18.026Z,9.89
2023-11-01T01:27:50.267Z,9.91
2023-11-01T01:30:22.859Z,9.91
2023-11-01T01:32:54.721Z,9.91
2023-11-01T01:35:26.695Z,9.91
2023-11-01T01:37:58.669Z,9.93
2023-11-01T01:40:30.651Z,9.93
2023-11-01T01:43:17.565Z,9.93
2023-11-01T01:46:01.140Z,9.95
2023-11-01T01:48:33.169Z,9.96
2023-11-01T01:51:06.211Z,9.98
2023-11-01T01:53:40.016Z,9.96
2023-11-01T01:56:13.141Z,9.97
2023-11-01T01:58:46.975Z,9.98
2023-11-01T02:01:19.698Z,10.00
2023-11-01T02:03:53.758Z,10.01
2023-11-01T02:06:25.755Z,10.03
2023-11-01T02:08:58.636Z,10.02
2023-11-01T02:11:30.421Z,10.02
2023-11-01T02:14:02.163Z,10.05
2023-11-01T02:16:33.992Z,10.07
2023-11-01T02:19:06.296Z,10.09
2023-11-01T02:21:38.659Z,10.12
2023-11-01T02:24:11.446Z,10.14
2023-11-01T02:26:43.388Z,10.16
2023-11-01T02:29:15.185Z,10.17
2023-11-01T02:31:47.085Z,10.17
2023-11-01T02:34:19.092Z,10.17
2023-11-01T02:36:51.441Z,10.17
2023-11-01T02:39:23.377Z,10.19
2023-11-01T02:41:55.337Z,10.19
2023-11-01T02:44:27.706Z,10.18
2023-11-01T02:46:59.540Z,10.16
2023-11-01T02:49:31.511Z,10.16
2023-11-01T02:52:04.182Z,10.13
2023-11-01T02:54:36.904Z,10.14
2023-11-01T02:57:09.091Z,10.13
2023-11-01T02:59:40.955Z,10.11
2023-11-01T03:02:12.834Z,10.11
2023-11-01T03:04:44.811Z,10.11
2023-11-01T03:07:16.605Z,10.12
2023-11-01T03:09:48.871Z,10.09
2023-11-01T03:12:20.732Z,10.07
2023-11-01T03:14:52.887Z,10.04
2023-11-01T03:17:24.824Z,10.01
2023-11-01T03:19:56.712Z,10.01
2023-11-01T03:22:28.877Z,10.00
2023-11-01T03:25:00.877Z,10.00
2023-11-01T03:27:32.923Z,10.00
2023-11-01T03:30:05.334Z,10.02
2023-11-01T03:32:37.289Z,10.02
2023-11-01T03:35:11.212Z,10.01
2023-11-01T03:37:43.932Z,10.00
2023-11-01T03:40:16.218Z,10.00
2023-11-01T03:42:48.080Z,9.99
2023-11-01T03:45:20.535Z,9.99
2023-11-01T03:47:53.667Z,9.95
2023-11-01T03:50:25.683Z,9.95
2023-11-01T03:52:57.956Z,9.95
2023-11-01T03:55:29.703Z,9.97
2023-11-01T03:58:01.586Z,9.97
2023-11-01T04:00:33.411Z,9.96
2023-11-01T04:03:05.282Z,9.96
2023-11-01T04:05:37.755Z,9.97
2023-11-01T04:08:10.045Z,9.97
2023-11-01T04:10:41.851Z,9.97
2023-11-01T04:13:14.192Z,9.97
2023-11-01T04:15:46.396Z,9.97
2023-11-01T04:18:18.569Z,9.96
2023-11-01T04:20:51.014Z,9.94
2023-11-01T04:23:22.882Z,9.93
2023-11-01T04:25:55.166Z,9.93
2023-11-01T04:28:26.994Z,9.89
2023-11-01T04:30:58.801Z,9.87
2023-11-01T04:33:33.384Z,9.86
2023-11-01T04:36:09.565Z,9.87
2023-11-01T04:38:42.716Z,9.87
2023-11-01T04:41:14.588Z,9.86
2023-11-01T04:43:46.351Z,9.83
2023-11-01T04:46:18.578Z,9.80
2023-11-01T04:48:51.419Z,9.82
2023-11-01T04:51:23.580Z,9.80
2023-11-01T04:53:55.440Z,9.78
2023-11-01T04:56:28.408Z,9.77
2023-11-01T04:59:00.270Z,9.78
2023-11-01T05:01:34.260Z,9.80
2023-11-01T05:04:06.362Z,9.80
2023-11-01T05:06:38.428Z,9.81
2023-11-01T05:09:10.467Z,9.83
2023-11-01T05:11:42.840Z,9.81
2023-11-01T05:14:14.884Z,9.80
2023-11-01T05:16:46.923Z,9.80
2023-11-01T05:19:20.663Z,9.79
2023-11-01T05:21:52.626Z,9.77
2023-11-01T05:24:24.455Z,9.77
2023-11-01T05:26:56.285Z,9.76
2023-11-01T05:29:28.278Z,9.76
2023-11-01T05:32:00.273Z,9.78
2023-11-01T05:34:32.241Z,9.79
2023-11-01T05:37:10.679Z,9.78
2023-11-01T05:39:42.988Z,9.78
2023-11-01T05:42:14.776Z,9.75
2023-11-01T05:44:46.653Z,9.75
2023-11-01T05:47:18.725Z,9.75
2023-11-01T05:49:50.875Z,9.73
2023-11-01T05:52:22.672Z,9.74
2023-11-01T05:55:04.168Z,9.74
2023-11-01T05:57:42.595Z,9.75
2023-11-01T06:00:16.244Z,9.75
2023-11-01T06:02:48.425Z,9.76
2023-11-01T06:05:23.750Z,9.78
2023-11-01T06:07:56.436Z,9.79
2023-11-01T06:10:28.349Z,9.80
2023-11-01T06:13:01.560Z,9.80
2023-11-01T06:15:33.437Z,9.80
2023-11-01T06:18:06.349Z,9.80
2023-11-01T06:20:39.024Z,9.80
2023-11-01T06:23:11.001Z,9.80
2023-11-01T06:25:43.101Z,9.80
2023-11-01T06:28:15.898Z,9.81
2023-11-01T06:30:48.336Z,9.83
2023-11-01T06:33:20.288Z,9.83
2023-11-01T06:35:52.396Z,9.83
2023-11-01T06:38:24.834Z,9.85
2023-11-01T06:40:56.795Z,9.86
2023-11-01T06:43:28.905Z,9.87
2023-11-01T06:46:01.139Z,9.88
2023-11-01T06:48:33.082Z,9.88
2023-11-01T06:51:05.722Z,9.88
2023-11-01T06:53:37.764Z,9.91
2023-11-01T06:56:10.990Z,9.97
2023-11-01T06:58:44.409Z,10.03
2023-11-01T07:01:17.518Z,10.18
2023-11-01T07:03:49.551Z,10.34
2023-11-01T07:06:21.742Z,10.32
2023-11-01T07:08:53.619Z,10.31
2023-11-01T07:11:26.288Z,10.40
2023-11-01T07:13:58.294Z,10.51
2023-11-01T07:16:30.707Z,10.54
2023-11-01T07:19:02.505Z,10.52
2023-11-01T07:21:34.327Z,10.71
2023-11-01T07:24:07.417Z,11.19
2023-11-01T07:26:39.554Z,11.62
2023-11-01T07:29:11.383Z,12.02
2023-11-01T07:31:43.348Z,12.25
2023-11-01T07:34:15.286Z,12.35
2023-11-01T07:36:47.177Z,12.50
2023-11-01T07:39:19.070Z,12.58
2023-11-01T07:41:51.017Z,12.66
2023-11-01T07:44:22.988Z,12.74
2023-11-01T07:46:55.234Z,12.72
2023-11-01T07:49:27.031Z,12.77
2023-11-01T07:51:59.090Z,12.83
2023-11-01T07:54:32.941Z,13.01
2023-11-01T07:57:05.332Z,13.45
2023-11-01T07:59:37.492Z,13.86
2023-11-01T08:02:09.582Z,14.41
2023-11-01T08:04:41.544Z,14.50
2023-11-01T08:07:15.531Z,14.31
2023-11-01T08:09:49.023Z,14.05
2023-11-01T08:12:20.935Z,13.84
2023-11-01T08:14:52.782Z,13.64
2023-11-01T08:17:25.085Z,13.44
2023-11-01T08:20:02.572Z,13.29
2023-11-01T08:22:36.245Z,13.19
2023-11-01T08:25:10.900Z,13.07
2023-11-01T08:27:42.701Z,12.98
2023-11-01T08:30:15.907Z,12.93
2023-11-01T08:32:48.069Z,12.86
2023-11-01T08:35:20.210Z,12.77
2023-11-01T08:37:52.249Z,12.62
2023-11-01T08:40:24.138Z,12.56
2023-11-01T08:42:55.943Z,12.55
2023-11-01T08:45:27.751Z,12.62
2023-11-01T08:47:59.704Z,12.63
2023-11-01T08:50:31.797Z,12.68
2023-11-01T08:53:03.619Z,12.71
2023-11-01T08:55:36.272Z,12.75
2023-11-01T08:58:08.101Z,12.71
2023-11-01T09:00:45.846Z,12.68
2023-11-01T09:03:19.695Z,12.63
2023-11-01T09:05:52.225Z,12.58
2023-11-01T09:08:26.947Z,12.66
2023-11-01T09:10:59.856Z,12.73
2023-11-01T09:13:32.686Z,13.35
2023-11-01T09:16:04.637Z,14.82
2023-11-01T09:18:36.795Z,16.86
2023-11-01T09:21:09.140Z,18.84
2023-11-01T09:23:41.075Z,19.71
2023-11-01T09:26:16.302Z,18.93
2023-11-01T09:28:48.076Z,18.18
2023-11-01T09:31:20.242Z,17.70
2023-11-01T09:33:52.191Z,17.33
2023-11-01T09:36:24.013Z,17.06
2023-11-01T09:38:55.835Z,16.70
2023-11-01T09:41:31.550Z,16.24
2023-11-01T09:44:04.042Z,15.89
2023-11-01T09:46:36.971Z,15.94
2023-11-01T09:49:08.848Z,16.95
2023-11-01T09:51:40.869Z,17.86
2023-11-01T09:54:12.698Z,18.37
2023-11-01T09:56:47.128Z,18.49
2023-11-01T09:59:19.118Z,18.31
2023-11-01T10:01:50.894Z,18.22
2023-11-01T10:04:24.700Z,18.51
2023-11-01T10:06:56.823Z,19.51
2023-11-01T10:09:30.750Z,19.23
2023-11-01T10:12:04.434Z,18.99
2023-11-01T10:14:36.685Z,18.53
2023-11-01T10:17:08.656Z,18.06
2023-11-01T10:19:42.902Z,17.67
2023-11-01T10:22:15.089Z,17.41
2023-11-01T10:24:47.193Z,17.13
2023-11-01T10:27:19.022Z,17.19
2023-11-01T10:29:50.882Z,17.43
2023-11-01T10:32:24.463Z,17.51
2023-11-01T10:35:10.930Z,17.67
2023-11-01T10:37:42.726Z,18.25
2023-11-01T10:40:15.804Z,18.16
2023-11-01T10:42:48.157Z,18.97
2023-11-01T10:45:20.262Z,19.48
2023-11-01T10:47:54.748Z,19.41
2023-11-01T10:50:26.665Z,19.53
2023-11-01T10:52:58.968Z,19.87
2023-11-01T10:55:33.218Z,20.50
2023-11-01T10:58:06.973Z,20.83
2023-11-01T11:00:44.650Z,21.19
2023-11-01T11:03:23.688Z,21.37
2023-11-01T11:05:57.524Z,21.13
2023-11-01T11:08:29.424Z,20.64
2023-11-01T11:11:18.580Z,20.49
2023-11-01T11:13:52.559Z,20.17
2023-11-01T11:16:25.998Z,19.75
2023-11-01T11:18:58.786Z,19.76
2023-11-01T11:22:05.847Z,19.70
2023-11-01T11:24:59.358Z,19.35
2023-11-01T11:27:54.185Z,18.76
2023-11-01T11:31:08.477Z,18.00
2023-11-01T11:33:55.902Z,17.32
2023-11-01T11:36:29.919Z,16.91
2023-11-01T11:39:03.206Z,16.68
2023-11-01T11:41:47.596Z,16.60
2023-11-01T11:44:20.947Z,16.53
2023-11-01T11:46:56.044Z,16.25
2023-11-01T11:49:32.052Z,16.15
2023-11-01T11:52:10.150Z,15.98
2023-11-01T11:54:42.157Z,15.86
2023-11-01T11:57:17.531Z,15.84
2023-11-01T11:59:49.448Z,15.84
2023-11-01T12:02:21.225Z,15.78
2023-11-01T12:04:54.268Z,15.59
2023-11-01T12:07:26.075Z,15.56
2023-11-01T12:09:58.819Z,15.52
2023-11-01T12:12:31.106Z,15.43
2023-11-01T12:15:05.033Z,15.41
2023-11-01T12:17:38.269Z,15.38
2023-11-01T12:20:11.735Z,15.32
2023-11-01T12:22:45.770Z,15.23
2023-11-01T12:25:26.721Z,15.19
2023-11-01T12:27:58.611Z,15.14
2023-11-01T12:30:32.846Z,15.06
2023-11-01T12:33:21.570Z,15.01
2023-11-01T12:35:53.527Z,15.02
2023-11-01T12:38:25.650Z,14.98
2023-11-01T12:41:00.324Z,14.90
2023-11-01T12:43:34.201Z,14.81
2023-11-01T12:46:06.517Z,14.73
2023-11-01T12:48:38.359Z,14.67
2023-11-01T12:51:11.092Z,14.57
2023-11-01T12:53:43.849Z,14.52
2023-11-01T12:56:16.321Z,14.53
2023-11-01T12:58:48.156Z,14.58
2023-11-01T13:01:21.496Z,14.63
2023-11-01T13:03:53.447Z,14.68
2023-11-01T13:06:25.349Z,14.74
2023-11-01T13:08:57.171Z,14.89
2023-11-01T13:11:29.596Z,15.10
2023-11-01T13:14:01.563Z,15.29
2023-11-01T13:16:33.393Z,15.54
2023-11-01T13:19:05.339Z,15.87
2023-11-01T13:21:37.085Z,16.13
2023-11-01T13:24:10.127Z,16.25
2023-11-01T13:26:41.924Z,16.28
2023-11-01T13:29:13.843Z,16.23
2023-11-01T13:31:45.624Z,16.14
2023-11-01T13:34:17.406Z,16.14
2023-11-01T13:36:49.112Z,16.16
2023-11-01T13:39:20.902Z,16.10
2023-11-01T13:41:53.739Z,16.03
2023-11-01T13:44:25.646Z,16.14
2023-11-01T13:46:57.531Z,16.22
2023-11-01T13:49:29.330Z,16.19
2023-11-01T13:52:01.615Z,16.24
2023-11-01T13:54:33.384Z,16.26
2023-11-01T13:57:05.246Z,16.24
2023-11-01T13:59:37.773Z,16.16
2023-11-01T14:02:09.717Z,16.24
2023-11-01T14:04:41.640Z,16.41
2023-11-01T14:07:13.410Z,16.45
2023-11-01T14:09:46.818Z,16.40
2023-11-01T14:12:18.875Z,16.34
2023-11-01T14:14:50.642Z,16.25
2023-11-01T14:17:22.394Z,16.21
2023-11-01T14:19:54.144Z,16.17
2023-11-01T14:22:25.982Z,16.06
2023-11-01T14:24:58.021Z,15.89
2023-11-01T14:27:29.810Z,15.79
2023-11-01T14:30:01.842Z,15.74
2023-11-01T14:32:33.800Z,15.64
2023-11-01T14:35:06.263Z,15.46
2023-11-01T14:37:38.039Z,15.22
2023-11-01T14:40:12.625Z,15.06
2023-11-01T14:42:44.659Z,14.91
2023-11-01T14:45:16.476Z,14.82
2023-11-01T14:47:48.317Z,14.74
2023-11-01T14:50:20.340Z,14.62
2023-11-01T14:52:52.434Z,14.50
2023-11-01T14:55:24.181Z,14.40
2023-11-01T14:57:55.994Z,14.32
2023-11-01T15:00:27.784Z,14.24
2023-11-01T15:02:59.834Z,14.12
2023-11-01T15:05:31.875Z,14.01
2023-11-01T15:08:03.604Z,13.84
2023-11-01T15:10:35.370Z,13.66
2023-11-01T15:13:08.284Z,13.50
2023-11-01T15:15:41.377Z,13.39
2023-11-01T15:18:13.230Z,13.25
2023-11-01T15:20:45.106Z,13.15
2023-11-01T15:23:17.068Z,13.08
2023-11-01T15:25:48.902Z,12.98
2023-11-01T15:28:20.712Z,12.94
2023-11-01T15:30:52.725Z,12.85
2023-11-01T15:33:25.598Z,12.68
2023-11-01T15:35:57.580Z,12.57
2023-11-01T15:38:29.332Z,12.46
2023-11-01T15:41:01.118Z,12.41
2023-11-01T15:43:32.909Z,12.33
2023-11-01T15:46:05.042Z,12.17
2023-11-01T15:48:37.687Z,12.06
2023-11-01T15:51:12.821Z,11.98
2023-11-01T15:53:44.726Z,11.87
2023-11-01T15:56:16.721Z,11.79
2023-11-01T15:58:48.516Z,11.70
2023-11-01T16:01:21.039Z,11.64
2023-11-01T16:03:53.102Z,11.57
2023-11-01T16:06:25.007Z,11.47
2023-11-01T16:08:56.851Z,11.37
2023-11-01T16:11:29.693Z,11.24
2023-11-01T16:14:04.869Z,11.18
2023-11-01T16:16:36.761Z,11.08
2023-11-01T16:19:09.216Z,11.01
2023-11-01T16:21:45.492Z,10.97
2023-11-01T16:24:17.385Z,10.93
2023-11-01T16:26:49.185Z,10.91
2023-11-01T16:29:20.999Z,10.81
2023-11-01T16:31:52.869Z,10.75
2023-11-01T16:34:24.680Z,10.70
2023-11-01T16:36:56.670Z,10.61
2023-11-01T16:39:28.735Z,10.54
2023-11-01T16:42:02.478Z,10.45
2023-11-01T16:44:34.542Z,10.37
2023-11-01T16:47:07.566Z,10.30
2023-11-01T16:49:43.143Z,10.25
2023-11-01T16:52:15.068Z,10.20
2023-11-01T16:54:47.240Z,10.12
2023-11-01T16:57:19.141Z,10.06
2023-11-01T16:59:50.987Z,9.99
2023-11-01T17:02:22.830Z,9.92
2023-11-01T17:04:54.609Z,9.84
2023-11-01T17:07:26.450Z,9.74
2023-11-01T17:09:58.629Z,9.67
2023-11-01T17:12:30.471Z,9.60
2023-11-01T17:15:02.414Z,9.54
2023-11-01T17:17:34.431Z,9.46
2023-11-01T17:20:09.512Z,9.37
2023-11-01T17:22:57.664Z,9.29
2023-11-01T17:29:04.485Z,9.21
2023-11-01T17:31:46.244Z,9.18
2023-11-01T17:34:28.685Z,9.13
2023-11-01T17:37:01.778Z,9.05
2023-11-01T17:39:40.119Z,8.97
2023-11-01T17:42:12.481Z,8.88
2023-11-01T17:44:46.188Z,8.85
2023-11-01T17:47:28.562Z,8.82
2023-11-01T17:50:01.614Z,8.79
2023-11-01T17:52:39.981Z,8.77
2023-11-01T17:55:15.305Z,8.76
2023-11-01T17:57:48.297Z,8.73
2023-11-01T18:00:27.942Z,8.73
2023-11-01T18:03:24.765Z,8.70
2023-11-01T18:05:57.163Z,8.68
2023-11-01T18:08:33.492Z,8.65
2023-11-01T18:11:08.599Z,8.60
2023-11-01T18:13:43.746Z,8.58
2023-11-01T18:16:25.196Z,8.56
2023-11-01T18:18:57.679Z,8.55
2023-11-01T18:21:34.521Z,8.52
2023-11-01T18:24:12.998Z,8.52
2023-11-01T18:26:45.352Z,8.53
2023-11-01T18:29:21.084Z,8.52
2023-11-01T18:31:53.160Z,8.50
2023-11-01T18:34:25.127Z,8.49
2023-11-01T18:36:57.070Z,8.48
2023-11-01T18:39:29.602Z,8.47
2023-11-01T18:42:01.840Z,8.47
2023-11-01T18:44:37.509Z,8.47
2023-11-01T18:47:10.125Z,8.46
2023-11-01T18:49:55.906Z,8.46
2023-11-01T18:52:29.059Z,8.45
2023-11-01T18:55:07.748Z,8.45
2023-11-01T18:57:42.068Z,8.47
2023-11-01T19:00:24.867Z,8.51
2023-11-01T19:03:08.992Z,8.52
2023-11-01T19:05:42.787Z,8.52
2023-11-01T19:08:16.047Z,8.54
2023-11-01T19:10:50.161Z,8.56
2023-11-01T19:13:22.171Z,8.56
2023-11-01T19:16:15.575Z,8.52
2023-11-01T19:18:50.722Z,8.51
2023-11-01T19:21:23.760Z,8.48
2023-11-01T19:23:55.678Z,8.43
2023-11-01T19:26:29.700Z,8.41
2023-11-01T19:29:02.271Z,8.36
2023-11-01T19:31:34.557Z,8.34
2023-11-01T19:34:06.412Z,8.34
2023-11-01T19:36:41.665Z,8.33
2023-11-01T19:39:15.007Z,8.33
2023-11-01T19:41:48.179Z,8.30
2023-11-01T19:44:20.230Z,8.25
2023-11-01T19:46:51.977Z,8.22
2023-11-01T19:49:24.245Z,8.18
2023-11-01T19:51:56.731Z,8.17
2023-11-01T19:54:32.256Z,8.17
2023-11-01T19:57:04.387Z,8.16
2023-11-01T19:59:38.153Z,8.10
2023-11-01T20:02:10.896Z,8.05
2023-11-01T20:04:43.961Z,8.00
2023-11-01T20:07:15.771Z,7.95
2023-11-01T20:09:47.631Z,7.94
2023-11-01T20:12:21.326Z,7.91
2023-11-01T20:14:53.271Z,7.91
2023-11-01T20:17:25.213Z,7.91
2023-11-01T20:19:57.444Z,7.88
2023-11-01T20:22:33.402Z,7.83
2023-11-01T20:25:05.884Z,7.77
2023-11-01T20:27:38.688Z,7.75
2023-11-01T20:30:14.212Z,7.69
2023-11-01T20:32:46.923Z,7.66
2023-11-01T20:35:19.399Z,7.62
2023-11-01T20:38:05.129Z,7.58
2023-11-01T20:40:48.794Z,7.54
2023-11-01T20:43:29.810Z,7.50
2023-11-01T20:46:05.229Z,7.48
2023-11-01T20:48:42.941Z,7.46
2023-11-01T20:51:21.612Z,7.46
2023-11-01T20:53:54.752Z,7.47
2023-11-01T20:56:29.327Z,7.47
2023-11-01T20:59:01.117Z,7.44
2023-11-01T21:01:34.807Z,7.41
2023-11-01T21:04:09.401Z,7.39
2023-11-01T21:06:43.945Z,7.38
2023-11-01T21:09:15.896Z,7.34
2023-11-01T21:11:49.966Z,7.32
2023-11-01T21:14:21.969Z,7.32
2023-11-01T21:16:57.059Z,7.30
2023-11-01T21:19:29.678Z,7.28
2023-11-01T21:22:02.382Z,7.27
2023-11-01T21:24:34.424Z,7.20
2023-11-01T21:27:07.109Z,7.16
2023-11-01T21:29:38.996Z,7.13
2023-11-01T21:32:11.968Z,7.13
2023-11-01T21:34:44.541Z,7.13
2023-11-01T21:37:17.120Z,7.11
2023-11-01T21:39:49.514Z,7.07
2023-11-01T21:42:24.704Z,7.03
2023-11-01T21:44:56.630Z,6.97
2023-11-01T21:47:37.359Z,6.95
2023-11-01T21:50:50.433Z,6.95
2023-11-01T21:53:24.060Z,6.94
2023-11-01T21:55:56.769Z,6.91
2023-11-01T21:58:32.130Z,6.87
2023-11-01T22:01:09.302Z,6.82
2023-11-01T22:03:45.184Z,6.82
2023-11-01T22:06:19.752Z,6.80
2023-11-01T22:09:11.823Z,6.78
2023-11-01T22:11:46.876Z,6.75
2023-11-01T22:14:33.204Z,6.73
2023-11-01T22:17:08.035Z,6.72
2023-11-01T22:19:42.545Z,6.72
2023-11-01T22:22:49.242Z,6.70
2023-11-01T22:25:34.062Z,6.69
2023-11-01T22:28:08.196Z,6.67
2023-11-01T22:30:40.875Z,6.66
2023-11-01T22:33:15.563Z,6.67
2023-11-01T22:35:48.649Z,6.69
2023-11-01T22:38:20.507Z,6.70
2023-11-01T22:40:53.055Z,6.70
2023-11-01T22:43:25.065Z,6.68
2023-11-01T22:45:58.717Z,6.70
2023-11-01T22:48:30.828Z,6.69
2023-11-01T22:51:02.740Z,6.69
2023-11-01T22:53:34.563Z,6.70
2023-11-01T22:56:08.582Z,6.69
2023-11-01T22:58:40.554Z,6.66
2023-11-01T23:01:12.926Z,6.63
2023-11-01T23:03:46.147Z,6.58
2023-11-01T23:06:18.056Z,6.53
2023-11-01T23:08:50.001Z,6.48
2023-11-01T23:11:23.227Z,6.44
2023-11-01T23:13:55.113Z,6.41
2023-11-01T23:16:29.596Z,6.34
2023-11-01T23:19:01.444Z,6.26
2023-11-01T23:21:33.393Z,6.18
2023-11-01T23:24:10.836Z,6.13
2023-11-01T23:26:57.241Z,6.07
2023-11-01T23:29:32.754Z,6.02
2023-11-01T23:32:13.473Z,5.98
2023-11-01T23:34:46.032Z,5.93
2023-11-01T23:37:33.994Z,5.89
2023-11-01T23:40:12.048Z,5.85
2023-11-01T23:42:48.429Z,5.83
2023-11-01T23:45:58.217Z,5.81
2023-11-01T23:48:30.166Z,5.80
2023-11-01T23:51:07.684Z,5.77
2023-11-01T23:53:41.383Z,5.72
2023-11-01T23:56:26.045Z,5.69
2023-11-01T23:58:58.638Z,5.66
